createdAt,value
2018-04-04T00:00:01.057Z,10.40
2018-04-04T00:02:28.569Z,10.40
2018-04-04T00:04:56.820Z,10.30
2018-04-04T00:07:24.318Z,10.30
2018-04-04T00:09:51.823Z,10.30
2018-04-04T00:12:19.290Z,10.30
2018-04-04T00:14:46.789Z,10.30
2018-04-04T00:17:14.258Z,10.20
2018-04-04T00:19:41.762Z,10.20
2018-04-04T00:22:09.268Z,10.20
2018-04-04T00:24:37.516Z,10.10
2018-04-04T00:27:05.035Z,10.10
2018-04-04T00:29:32.551Z,10.10
2018-04-04T00:32:00.115Z,10.10
2018-04-04T00:34:27.610Z,10.10
2018-04-04T00:36:55.976Z,10.00
2018-04-04T00:39:23.518Z,10.00
2018-04-04T00:41:51.030Z,10.00
2018-04-04T00:44:18.515Z,9.90
2018-04-04T00:46:45.998Z,9.90
2018-04-04T00:49:13.475Z,9.80
2018-04-04T00:51:40.996Z,9.80
2018-04-04T00:54:08.466Z,9.80
2018-04-04T00:56:35.949Z,9.80
2018-04-04T00:59:03.418Z,9.80
2018-04-04T01:01:30.910Z,9.70
2018-04-04T01:03:58.431Z,9.70
2018-04-04T01:06:26.946Z,9.70
2018-04-04T01:08:54.463Z,9.70
2018-04-04T01:11:21.982Z,9.70
2018-04-04T01:13:49.472Z,9.60
2018-04-04T01:16:16.954Z,9.40
2018-04-04T01:18:44.457Z,9.40
2018-04-04T01:21:12.698Z,9.30
2018-04-04T01:23:40.185Z,9.30
2018-04-04T01:26:07.677Z,9.30
2018-04-04T01:28:35.918Z,9.30
2018-04-04T01:31:03.414Z,9.20
2018-04-04T01:33:30.914Z,9.10
2018-04-04T01:35:59.176Z,9.00
2018-04-04T01:38:26.664Z,9.00
2018-04-04T01:40:54.894Z,8.90
2018-04-04T01:43:22.430Z,9.00
2018-04-04T01:45:49.927Z,8.90
2018-04-04T01:48:17.420Z,9.00
2018-04-04T01:50:44.887Z,8.90
2018-04-04T01:53:12.389Z,8.80
2018-04-04T01:55:39.859Z,8.90
2018-04-04T01:58:07.348Z,8.60
2018-04-04T02:00:35.613Z,8.30
2018-04-04T02:03:03.095Z,8.30
2018-04-04T02:05:30.586Z,8.30
2018-04-04T02:07:58.061Z,8.20
2018-04-04T02:10:25.567Z,8.10
2018-04-04T02:12:53.033Z,8.10
2018-04-04T02:15:20.523Z,8.00
2018-04-04T02:17:47.986Z,8.00
2018-04-04T02:20:15.481Z,8.00
2018-04-04T02:22:42.953Z,8.10
2018-04-04T02:25:10.431Z,8.10
2018-04-04T02:27:38.002Z,7.90
2018-04-04T02:30:06.267Z,7.80
2018-04-04T02:32:33.765Z,7.80
2018-04-04T02:35:02.005Z,7.80
2018-04-04T02:37:29.517Z,7.80
2018-04-04T02:39:56.985Z,7.80
2018-04-04T02:42:24.482Z,7.90
2018-04-04T02:44:52.723Z,7.80
2018-04-04T02:47:20.206Z,7.80
2018-04-04T02:49:47.675Z,7.70
2018-04-04T02:52:15.201Z,7.80
2018-04-04T02:54:42.669Z,7.80
2018-04-04T02:57:10.146Z,7.90
2018-04-04T02:59:37.646Z,7.80
2018-04-04T03:02:05.122Z,7.70
2018-04-04T03:04:32.614Z,7.70
2018-04-04T03:07:00.868Z,7.90
2018-04-04T03:09:28.351Z,7.90
2018-04-04T03:11:55.851Z,7.90
2018-04-04T03:14:23.350Z,7.90
2018-04-04T03:16:50.878Z,7.90
2018-04-04T03:19:18.338Z,7.90
2018-04-04T03:21:45.799Z,8.00
2018-04-04T03:24:13.291Z,8.10
2018-04-04T03:26:40.766Z,8.00
2018-04-04T03:29:08.270Z,7.90
2018-04-04T03:31:35.769Z,7.80
2018-04-04T03:34:03.235Z,7.80
2018-04-04T03:36:30.726Z,7.80
2018-04-04T03:38:58.201Z,7.70
2018-04-04T03:41:25.698Z,7.70
2018-04-04T03:43:53.228Z,7.70
2018-04-04T03:46:20.717Z,7.80
2018-04-04T03:48:48.210Z,7.80
2018-04-04T03:51:15.726Z,7.80
2018-04-04T03:53:43.194Z,7.80
2018-04-04T03:56:10.678Z,7.70
2018-04-04T03:58:38.182Z,7.70
2018-04-04T04:01:05.657Z,7.60
2018-04-04T04:03:33.930Z,7.70
2018-04-04T04:06:01.404Z,7.70
2018-04-04T04:08:28.892Z,7.80
2018-04-04T04:10:56.606Z,7.80
2018-04-04T04:13:24.202Z,7.90
2018-04-04T04:15:51.686Z,7.90
2018-04-04T04:18:19.190Z,8.10
2018-04-04T04:20:47.458Z,8.20
2018-04-04T04:23:14.933Z,8.20
2018-04-04T04:25:43.196Z,8.20
2018-04-04T04:28:10.658Z,8.20
2018-04-04T04:30:38.162Z,8.10
2018-04-04T04:33:06.439Z,8.00
2018-04-04T04:35:33.912Z,7.90
2018-04-04T04:38:01.437Z,7.90
2018-04-04T04:40:28.908Z,7.80
2018-04-04T04:42:56.391Z,7.80
2018-04-04T04:45:23.882Z,7.70
2018-04-04T04:47:51.355Z,7.70
2018-04-04T04:50:18.858Z,7.60
2018-04-04T04:52:47.094Z,7.70
2018-04-04T04:55:14.599Z,7.60
2018-04-04T04:57:42.074Z,7.70
2018-04-04T05:00:09.570Z,7.60
2018-04-04T05:02:37.082Z,7.70
2018-04-04T05:05:04.558Z,7.90
2018-04-04T05:07:32.165Z,8.00
2018-04-04T05:10:00.434Z,8.00
2018-04-04T05:12:27.910Z,8.00
2018-04-04T05:14:55.412Z,8.00
2018-04-04T05:17:22.883Z,8.10
2018-04-04T05:19:50.390Z,8.30
2018-04-04T05:22:17.870Z,8.30
2018-04-04T05:24:45.372Z,8.30
2018-04-04T05:27:13.617Z,8.30
2018-04-04T05:29:41.114Z,8.20
2018-04-04T05:32:08.612Z,8.30
2018-04-04T05:34:36.871Z,8.40
2018-04-04T05:37:04.361Z,8.40
2018-04-04T05:39:31.852Z,8.60
2018-04-04T05:41:59.361Z,8.80
2018-04-04T05:44:26.858Z,8.90
2018-04-04T05:46:54.377Z,9.10
2018-04-04T05:49:21.846Z,9.10
2018-04-04T05:51:49.318Z,9.20
2018-04-04T05:54:16.816Z,9.30
2018-04-04T05:56:44.289Z,9.50
2018-04-04T05:59:11.795Z,9.70
2018-04-04T06:01:39.320Z,9.90
2018-04-04T06:04:06.805Z,10.00
2018-04-04T06:06:34.309Z,10.10
2018-04-04T06:09:02.547Z,10.20
2018-04-04T06:11:30.059Z,10.20
2018-04-04T06:13:58.359Z,10.30
2018-04-04T06:16:25.803Z,10.30
2018-04-04T06:18:53.301Z,10.30
2018-04-04T06:21:21.577Z,10.30
2018-04-04T06:23:49.230Z,10.30
2018-04-04T06:26:16.722Z,10.40
2018-04-04T06:28:44.218Z,10.40
2018-04-04T06:31:11.701Z,10.40
2018-04-04T06:33:39.221Z,10.50
2018-04-04T06:36:06.721Z,10.50
2018-04-04T06:38:34.238Z,10.60
2018-04-04T06:41:01.747Z,10.60
2018-04-04T06:43:29.260Z,10.60
2018-04-04T06:45:56.753Z,10.60
2018-04-04T06:48:24.229Z,10.70
2018-04-04T06:50:51.726Z,10.70
2018-04-04T06:53:19.230Z,10.60
2018-04-04T06:55:46.706Z,10.60
2018-04-04T06:58:14.199Z,10.70
2018-04-04T07:00:41.690Z,10.70
2018-04-04T07:03:09.216Z,10.70
2018-04-04T07:05:36.731Z,10.60
2018-04-04T07:08:04.245Z,10.60
2018-04-04T07:10:31.769Z,10.60
2018-04-04T07:12:59.284Z,10.70
2018-04-04T07:15:26.767Z,10.80
2018-04-04T07:17:54.273Z,10.80
2018-04-04T07:20:21.766Z,10.80
2018-04-04T07:22:49.234Z,10.80
2018-04-04T07:25:16.855Z,10.80
2018-04-04T07:27:44.342Z,10.80
2018-04-04T07:30:11.835Z,10.70
2018-04-04T07:32:39.337Z,10.80
2018-04-04T07:35:06.821Z,10.90
2018-04-04T07:37:35.094Z,10.90
2018-04-04T07:40:03.055Z,10.90
2018-04-04T07:42:30.576Z,11.00
2018-04-04T07:44:58.061Z,11.00
2018-04-04T07:47:25.565Z,11.20
2018-04-04T07:49:53.092Z,11.30
2018-04-04T07:52:20.604Z,11.20
2018-04-04T07:54:48.093Z,11.30
2018-04-04T07:57:15.618Z,11.40
2018-04-04T07:59:43.178Z,11.50
2018-04-04T08:02:11.398Z,11.50
2018-04-04T08:04:38.950Z,11.50
2018-04-04T08:07:06.438Z,11.50
2018-04-04T08:09:33.933Z,11.50
2018-04-04T08:12:01.450Z,11.40
2018-04-04T08:14:28.935Z,11.40
2018-04-04T08:16:56.423Z,11.50
2018-04-04T08:19:23.966Z,11.50
2018-04-04T08:21:51.458Z,11.60
2018-04-04T08:24:18.970Z,11.70
2018-04-04T08:26:46.464Z,11.90
2018-04-04T08:29:14.740Z,12.40
2018-04-04T08:31:42.235Z,12.40
2018-04-04T08:34:09.749Z,12.50
2018-04-04T08:36:37.229Z,12.60
2018-04-04T08:39:04.738Z,12.80
2018-04-04T08:41:32.249Z,12.90
2018-04-04T08:43:59.773Z,12.90
2018-04-04T08:46:28.030Z,12.90
2018-04-04T08:48:55.527Z,12.90
2018-04-04T08:51:23.023Z,12.90
2018-04-04T08:53:50.525Z,12.90
2018-04-04T08:56:18.491Z,12.80
2018-04-04T08:58:45.989Z,12.60
2018-04-04T09:01:13.470Z,12.80
2018-04-04T09:03:40.983Z,12.90
2018-04-04T09:06:09.254Z,13.00
2018-04-04T09:08:37.501Z,13.00
2018-04-04T09:11:05.059Z,13.00
2018-04-04T09:13:32.538Z,13.00
2018-04-04T09:16:00.048Z,13.20
2018-04-04T09:18:27.522Z,13.40
2018-04-04T09:20:55.016Z,13.40
2018-04-04T09:23:23.297Z,13.40
2018-04-04T09:25:51.543Z,13.30
2018-04-04T09:28:19.014Z,13.30
2018-04-04T09:30:46.532Z,13.30
2018-04-04T09:33:14.774Z,13.50
2018-04-04T09:35:42.249Z,13.50
2018-04-04T09:38:09.743Z,13.70
2018-04-04T09:40:37.990Z,14.10
2018-04-04T09:43:05.496Z,14.00
2018-04-04T09:45:32.966Z,14.10
2018-04-04T09:48:00.491Z,14.00
2018-04-04T09:50:27.963Z,14.00
2018-04-04T09:52:55.475Z,13.90
2018-04-04T09:55:22.967Z,14.00
2018-04-04T09:57:50.438Z,13.90
2018-04-04T10:00:17.947Z,13.90
2018-04-04T10:02:45.456Z,14.00
2018-04-04T10:05:12.958Z,14.10
2018-04-04T10:07:41.194Z,14.00
2018-04-04T10:10:08.714Z,14.00
2018-04-04T10:12:36.223Z,14.00
2018-04-04T10:15:03.735Z,13.90
2018-04-04T10:17:31.217Z,13.90
2018-04-04T10:19:59.493Z,13.90
2018-04-04T10:22:26.963Z,13.80
2018-04-04T10:24:54.456Z,13.90
2018-04-04T10:27:22.726Z,13.90
2018-04-04T10:29:50.244Z,13.90
2018-04-04T10:32:17.720Z,13.90
2018-04-04T10:34:45.202Z,13.80
2018-04-04T10:37:12.709Z,13.90
2018-04-04T10:39:40.971Z,13.90
2018-04-04T10:42:08.498Z,13.80
2018-04-04T10:44:36.018Z,13.90
2018-04-04T10:47:03.544Z,13.90
2018-04-04T10:49:31.120Z,13.90
2018-04-04T10:51:58.614Z,13.90
2018-04-04T10:54:26.550Z,13.70
2018-04-04T10:56:54.831Z,13.70
2018-04-04T10:59:23.062Z,13.80
2018-04-04T11:01:50.554Z,13.80
2018-04-04T11:04:18.054Z,13.80
2018-04-04T11:06:45.525Z,13.90
2018-04-04T11:09:13.027Z,13.90
2018-04-04T11:11:40.525Z,13.80
2018-04-04T11:14:08.025Z,13.90
2018-04-04T11:16:35.545Z,13.70
2018-04-04T11:19:03.024Z,13.70
2018-04-04T11:21:30.526Z,13.60
2018-04-04T11:23:58.002Z,13.70
2018-04-04T11:26:25.477Z,13.80
2018-04-04T11:28:52.982Z,13.90
2018-04-04T11:31:21.226Z,14.10
2018-04-04T11:33:48.726Z,14.10
2018-04-04T11:36:16.198Z,14.00
2018-04-04T11:38:43.746Z,14.10
2018-04-04T11:41:12.025Z,14.30
2018-04-04T11:43:39.507Z,14.30
2018-04-04T11:46:07.167Z,14.10
2018-04-04T11:48:34.639Z,14.00
2018-04-04T11:51:02.140Z,14.00
2018-04-04T11:53:29.613Z,14.00
2018-04-04T11:55:57.154Z,14.10
2018-04-04T11:58:24.683Z,14.10
2018-04-04T12:00:52.155Z,13.80
2018-04-04T12:03:19.629Z,13.80
2018-04-04T12:05:47.127Z,13.90
2018-04-04T12:08:14.606Z,13.80
2018-04-04T12:10:42.109Z,13.80
2018-04-04T12:13:09.615Z,13.70
2018-04-04T12:15:37.092Z,13.90
2018-04-04T12:18:04.597Z,13.80
2018-04-04T12:20:32.076Z,13.90
2018-04-04T12:22:59.587Z,13.70
2018-04-04T12:25:27.054Z,13.70
2018-04-04T12:27:55.326Z,13.80
2018-04-04T12:30:23.570Z,13.80
2018-04-04T12:32:51.058Z,13.80
2018-04-04T12:35:18.600Z,13.80
2018-04-04T12:37:46.080Z,13.90
2018-04-04T12:40:13.589Z,13.80
2018-04-04T12:42:41.076Z,13.80
2018-04-04T12:45:08.562Z,13.80
2018-04-04T12:47:36.072Z,13.90
2018-04-04T12:50:03.585Z,13.80
2018-04-04T12:52:31.846Z,14.00
2018-04-04T12:54:59.314Z,14.00
2018-04-04T12:57:26.810Z,14.00
2018-04-04T12:59:55.047Z,14.20
2018-04-04T13:02:22.558Z,14.20
2018-04-04T13:04:50.051Z,14.00
2018-04-04T13:07:18.310Z,14.10
2018-04-04T13:09:45.819Z,14.00
2018-04-04T13:12:13.384Z,14.00
2018-04-04T13:14:41.668Z,14.20
2018-04-04T13:17:09.903Z,14.10
2018-04-04T13:19:37.473Z,14.10
2018-04-04T13:22:04.983Z,14.20
2018-04-04T13:24:32.485Z,14.00
2018-04-04T13:26:59.992Z,13.90
2018-04-04T13:29:27.465Z,14.00
2018-04-04T13:31:54.949Z,14.00
2018-04-04T13:34:22.463Z,13.90
2018-04-04T13:36:50.697Z,14.10
2018-04-04T13:39:18.194Z,14.10
2018-04-04T13:41:45.693Z,14.20
2018-04-04T13:44:13.978Z,14.20
2018-04-04T13:46:42.215Z,14.20
2018-04-04T13:49:09.722Z,14.20
2018-04-04T13:51:37.193Z,14.20
2018-04-04T13:54:04.700Z,14.30
2018-04-04T13:56:32.174Z,14.20
2018-04-04T13:58:59.676Z,14.20
2018-04-04T14:01:27.170Z,14.30
2018-04-04T14:03:54.690Z,14.50
2018-04-04T14:06:22.175Z,14.20
2018-04-04T14:08:49.704Z,14.10
2018-04-04T14:11:17.971Z,14.10
2018-04-04T14:13:45.447Z,14.10
2018-04-04T14:16:12.946Z,14.10
2018-04-04T14:18:40.436Z,14.20
2018-04-04T14:21:07.946Z,14.10
2018-04-04T14:23:35.440Z,14.30
2018-04-04T14:26:03.719Z,13.90
2018-04-04T14:28:31.965Z,14.00
2018-04-04T14:30:59.480Z,14.00
2018-04-04T14:33:26.954Z,13.90
2018-04-04T14:35:54.469Z,13.90
2018-04-04T14:38:21.941Z,13.80
2018-04-04T14:40:49.427Z,13.80
2018-04-04T14:43:16.927Z,13.60
2018-04-04T14:45:44.403Z,13.70
2018-04-04T14:48:11.913Z,13.70
2018-04-04T14:50:39.419Z,13.60
2018-04-04T14:53:06.927Z,13.60
2018-04-04T14:55:35.210Z,13.50
2018-04-04T14:58:02.687Z,13.50
2018-04-04T15:00:30.184Z,13.80
2018-04-04T15:02:57.660Z,13.70
2018-04-04T15:05:25.175Z,13.70
2018-04-04T15:07:52.653Z,13.70
2018-04-04T15:10:20.155Z,13.80
2018-04-04T15:12:48.414Z,14.00
2018-04-04T15:15:15.906Z,14.00
2018-04-04T15:17:43.382Z,14.10
2018-04-04T15:20:11.666Z,14.00
2018-04-04T15:22:39.150Z,14.00
2018-04-04T15:25:06.631Z,14.00
2018-04-04T15:27:34.126Z,14.00
2018-04-04T15:30:01.607Z,14.00
2018-04-04T15:32:29.106Z,13.80
2018-04-04T15:34:56.573Z,13.60
2018-04-04T15:37:24.086Z,13.70
2018-04-04T15:39:51.628Z,13.90
2018-04-04T15:42:20.666Z,14.00
2018-04-04T15:44:48.136Z,14.00
2018-04-04T15:47:15.639Z,13.90
2018-04-04T15:49:43.120Z,13.70
2018-04-04T15:52:10.617Z,13.70
2018-04-04T15:54:38.125Z,13.80
2018-04-04T15:57:05.616Z,13.80
2018-04-04T15:59:33.123Z,13.70
2018-04-04T16:02:00.618Z,13.70
2018-04-04T16:04:28.882Z,13.70
2018-04-04T16:06:56.410Z,13.70
2018-04-04T16:09:23.878Z,13.80
2018-04-04T16:11:51.354Z,14.00
2018-04-04T16:14:18.846Z,14.00
2018-04-04T16:16:47.321Z,13.90
2018-04-04T16:19:15.640Z,13.80
2018-04-04T16:21:43.138Z,13.80
2018-04-04T16:24:11.312Z,13.80
2018-04-04T16:26:38.812Z,13.70
2018-04-04T16:29:06.280Z,13.80
2018-04-04T16:31:33.810Z,13.70
2018-04-04T16:34:01.325Z,13.70
2018-04-04T16:36:28.822Z,13.70
2018-04-04T16:38:56.290Z,13.80
2018-04-04T16:41:23.791Z,13.70
2018-04-04T16:43:51.260Z,13.60
2018-04-04T16:46:18.752Z,13.50
2018-04-04T16:48:46.220Z,13.60
2018-04-04T16:51:13.723Z,13.80
2018-04-04T16:53:41.211Z,13.90
2018-04-04T16:56:08.715Z,13.90
2018-04-04T16:58:36.199Z,13.80
2018-04-04T17:01:03.692Z,13.80
2018-04-04T17:03:31.180Z,13.90
2018-04-04T17:05:58.741Z,13.90
2018-04-04T17:08:26.235Z,13.90
2018-04-04T17:10:53.831Z,13.90
2018-04-04T17:13:21.348Z,13.90
2018-04-04T17:15:48.838Z,13.90
2018-04-04T17:18:16.352Z,13.70
2018-04-04T17:20:43.951Z,13.80
2018-04-04T17:23:11.468Z,13.80
2018-04-04T17:25:38.953Z,13.70
2018-04-04T17:28:06.499Z,13.70
2018-04-04T17:30:34.749Z,13.60
2018-04-04T17:33:03.020Z,13.70
2018-04-04T17:35:30.538Z,13.60
2018-04-04T17:37:58.021Z,13.50
2018-04-04T17:40:25.538Z,13.50
2018-04-04T17:42:53.016Z,13.40
2018-04-04T17:45:21.256Z,13.30
2018-04-04T17:47:48.771Z,13.30
2018-04-04T17:50:17.022Z,13.20
2018-04-04T17:52:44.530Z,13.20
2018-04-04T17:55:12.050Z,13.10
2018-04-04T17:57:39.542Z,13.10
2018-04-04T18:00:07.085Z,13.10
2018-04-04T18:02:34.658Z,13.00
2018-04-04T18:05:02.923Z,12.90
2018-04-04T18:07:31.886Z,12.80
2018-04-04T18:09:59.376Z,12.80
2018-04-04T18:12:26.882Z,12.80
2018-04-04T18:14:55.141Z,12.60
2018-04-04T18:17:22.667Z,12.60
2018-04-04T18:19:50.170Z,12.60
2018-04-04T18:22:17.954Z,12.60
2018-04-04T18:24:45.553Z,12.50
2018-04-04T18:27:13.820Z,12.40
2018-04-04T18:29:41.326Z,12.40
2018-04-04T18:32:08.881Z,12.40
2018-04-04T18:34:37.129Z,12.40
2018-04-04T18:37:04.602Z,12.40
2018-04-04T18:39:32.102Z,12.30
2018-04-04T18:41:59.584Z,12.20
2018-04-04T18:44:27.848Z,12.30
2018-04-04T18:46:55.346Z,12.30
2018-04-04T18:49:23.685Z,12.30
2018-04-04T18:51:51.862Z,12.20
2018-04-04T18:54:19.370Z,12.30
2018-04-04T18:56:46.847Z,12.30
2018-04-04T18:59:15.107Z,12.10
2018-04-04T19:01:42.634Z,12.10
2018-04-04T19:04:10.888Z,12.10
2018-04-04T19:06:38.392Z,12.10
2018-04-04T19:09:05.872Z,12.10
2018-04-04T19:11:33.373Z,12.10
2018-04-04T19:14:00.855Z,12.00
2018-04-04T19:16:28.353Z,11.90
2018-04-04T19:18:55.840Z,12.00
2018-04-04T19:21:24.110Z,11.90
2018-04-04T19:23:51.583Z,11.90
2018-04-04T19:26:19.100Z,11.90
2018-04-04T19:28:46.575Z,11.90
2018-04-04T19:31:14.090Z,11.90
2018-04-04T19:33:41.566Z,11.90
2018-04-04T19:39:00.014Z,11.90
2018-04-04T19:41:27.508Z,12.00
2018-04-04T19:43:54.990Z,12.00
2018-04-04T19:46:22.491Z,12.00
2018-04-04T19:48:50.734Z,12.00
2018-04-04T19:51:18.217Z,12.00
2018-04-04T19:53:45.730Z,12.00
2018-04-04T19:56:13.204Z,11.90
2018-04-04T19:58:40.684Z,11.90
2018-04-04T20:01:08.223Z,11.70
2018-04-04T20:03:36.716Z,11.70
2018-04-04T20:06:04.228Z,11.70
2018-04-04T20:08:31.746Z,11.60
2018-04-04T20:10:59.222Z,11.60
2018-04-04T20:13:26.686Z,11.60
2018-04-04T20:15:54.991Z,11.50
2018-04-04T20:18:23.229Z,11.50
2018-04-04T20:20:50.699Z,11.50
2018-04-04T20:23:18.238Z,11.50
2018-04-04T20:25:45.748Z,11.40
2018-04-04T20:28:13.333Z,11.30
2018-04-04T20:30:40.878Z,11.30
2018-04-04T20:33:08.358Z,11.20
2018-04-04T20:35:35.829Z,11.20
2018-04-04T20:38:03.320Z,11.20
2018-04-04T20:40:30.810Z,11.20
2018-04-04T20:42:59.054Z,11.10
2018-04-04T20:45:26.554Z,11.10
2018-04-04T20:47:54.055Z,11.10
2018-04-04T20:50:22.300Z,11.10
2018-04-04T20:52:49.805Z,11.10
2018-04-04T20:55:18.050Z,11.10
2018-04-04T20:57:45.527Z,11.00
2018-04-04T21:00:13.022Z,11.10
2018-04-04T21:02:40.529Z,11.10
2018-04-04T21:05:08.013Z,11.10
2018-04-04T21:07:35.510Z,11.10
2018-04-04T21:10:03.290Z,11.00
2018-04-04T21:12:30.774Z,11.10
2018-04-04T21:14:58.438Z,10.90
2018-04-04T21:17:26.142Z,11.00
2018-04-04T21:19:54.420Z,11.00
2018-04-04T21:22:23.418Z,10.90
2018-04-04T21:24:51.698Z,11.00
2018-04-04T21:27:19.241Z,10.90
2018-04-04T21:29:46.722Z,11.00
2018-04-04T21:32:14.203Z,10.90
2018-04-04T21:34:41.695Z,10.90
2018-04-04T21:37:09.172Z,10.80
2018-04-04T21:39:36.662Z,10.90
2018-04-04T21:42:04.917Z,10.80
2018-04-04T21:44:32.467Z,10.80
2018-04-04T21:46:59.946Z,10.80
2018-04-04T21:49:27.437Z,10.70
2018-04-04T21:51:54.946Z,10.70
2018-04-04T21:54:22.451Z,10.80
2018-04-04T21:56:49.955Z,10.70
2018-04-04T21:59:17.457Z,10.80
2018-04-04T22:01:44.954Z,10.70
2018-04-04T22:04:12.435Z,10.60
2018-04-04T22:06:39.954Z,10.50
2018-04-04T22:09:08.186Z,10.50
2018-04-04T22:11:35.668Z,10.50
2018-04-04T22:14:03.187Z,10.50
2018-04-04T22:16:31.426Z,10.40
2018-04-04T22:18:58.904Z,10.40
2018-04-04T22:21:26.399Z,10.30
2018-04-04T22:23:53.870Z,10.30
2018-04-04T22:26:21.424Z,10.30
2018-04-04T22:28:48.895Z,10.30
2018-04-04T22:31:16.401Z,10.20
2018-04-04T22:33:44.643Z,10.30
2018-04-04T22:36:12.198Z,10.20
2018-04-04T22:38:39.683Z,10.30
2018-04-04T22:41:07.186Z,10.20
2018-04-04T22:43:34.678Z,10.20
2018-04-04T22:46:02.943Z,10.30
2018-04-04T22:48:30.453Z,10.30
2018-04-04T22:50:57.930Z,10.20
2018-04-04T22:53:25.445Z,10.20
2018-04-04T22:55:52.991Z,10.20
2018-04-04T22:58:20.470Z,10.20
2018-04-04T23:00:47.982Z,10.10
2018-04-04T23:03:16.386Z,10.00
2018-04-04T23:05:44.670Z,10.00
2018-04-04T23:08:12.942Z,10.00
2018-04-04T23:10:40.421Z,9.90
2018-04-04T23:13:07.937Z,10.00
2018-04-04T23:15:35.483Z,9.90
2018-04-04T23:18:03.730Z,10.00
2018-04-04T23:20:31.240Z,10.00
2018-04-04T23:22:58.764Z,10.00
2018-04-04T23:25:26.274Z,9.90
2018-04-04T23:27:54.586Z,10.00
2018-04-04T23:30:22.060Z,10.00
2018-04-04T23:32:49.564Z,10.00
2018-04-04T23:35:17.034Z,10.00
2018-04-04T23:37:44.546Z,10.00
2018-04-04T23:40:12.015Z,10.00
2018-04-04T23:42:40.377Z,10.10
2018-04-04T23:45:07.877Z,10.10
2018-04-04T23:47:36.690Z,10.10
2018-04-04T23:50:04.231Z,10.10
2018-04-04T23:52:31.758Z,10.10
2018-04-04T23:54:59.285Z,10.10
2018-04-04T23:57:26.830Z,10.10
2018-04-04T23:59:54.321Z,10.10
